Sns 254 — FT4254 — position and weather

sailwx.info

Track history (hours):
 
Tides and Currents Weather Stations Pressure Air Temp Water Temp Dewpoint Dewpoint Depression Visibility Wind Speed Wind Dir Waves Ship Positions

Sns 254

Last reported at 2017-Sep-10 08:34 UTC. Time now 2017-Sep-22 01:18 UTC.
Position N 47°21' W 002°31'.
Warning: this ship's position is 11 days out of date.

Length 8 m.

Type: Pilot. MMSI: 227002810.

Date/timePositionNaut miles runAvg speedWind from/ knotsBaromVisibWave heightAir tempDewpointWater temp
2017-Sep-10 08:34N 47°21' W 002°31'1 8.8
2017-Sep-10 08:29N 47°20' W 002°31'1 1.2
2017-Sep-10 07:59N 47°20' W 002°31'1 2.5
2017-Sep-10 07:29N 47°21' W 002°32'  
2017-Sep-06 16:31N 47°21' W 002°32'220.2
2017-Sep-06 16:24N 47°22' W 002°35'511.5
2017-Sep-06 16:00N 47°25' W 002°29'0 0.6
2017-Sep-06 15:27N 47°25' W 002°29'2 3.5
2017-Sep-06 15:00N 47°24' W 002°31'  
2017-Sep-02 15:16N 47°21' W 002°31'311.2
2017-Sep-02 15:00N 47°22' W 002°35'2 2.0
2017-Sep-02 14:10N 47°23' W 002°33'0 0.0
2017-Sep-02 13:51N 47°23' W 002°33'0 0.0
2017-Sep-02 13:28N 47°23' W 002°33'0 0.0
2017-Sep-02 12:54N 47°23' W 002°33'0 0.0
2017-Sep-02 12:30N 47°23' W 002°33'0 0.0
2017-Sep-02 09:50N 47°23' W 002°33'0 0.0
2017-Sep-02 09:26N 47°23' W 002°33'0 0.0
2017-Sep-02 09:00N 47°23' W 002°33'1 1.7
2017-Sep-02 08:30N 47°24' W 002°34'  
Track history (hours):
 
Tides and Currents Weather Stations Pressure Air Temp Water Temp Dewpoint Dewpoint Depression Visibility Wind Speed Wind Dir Waves Ship Positions

Sns 254

Last reported at 2017-Sep-10 08:34 UTC. Time now 2017-Sep-22 01:18 UTC.
Position N 47°21' W 002°31'.
Warning: this ship's position is 11 days out of date.

Length 8 m.

Type: Pilot. MMSI: 227002810.

Date/timePositionNaut miles runAvg speedWind from/ knotsBaromVisibWave heightAir tempDewpointWater temp
2017-Sep-10 08:34N 47°21' W 002°31'1 8.8
2017-Sep-10 08:29N 47°20' W 002°31'1 1.2
2017-Sep-10 07:59N 47°20' W 002°31'1 2.5
2017-Sep-10 07:29N 47°21' W 002°32'  
2017-Sep-06 16:31N 47°21' W 002°32'220.2
2017-Sep-06 16:24N 47°22' W 002°35'511.5
2017-Sep-06 16:00N 47°25' W 002°29'0 0.6
2017-Sep-06 15:27N 47°25' W 002°29'2 3.5
2017-Sep-06 15:00N 47°24' W 002°31'  
2017-Sep-02 15:16N 47°21' W 002°31'311.2
2017-Sep-02 15:00N 47°22' W 002°35'2 2.0
2017-Sep-02 14:10N 47°23' W 002°33'0 0.0
2017-Sep-02 13:51N 47°23' W 002°33'0 0.0
2017-Sep-02 13:28N 47°23' W 002°33'0 0.0
2017-Sep-02 12:54N 47°23' W 002°33'0 0.0
2017-Sep-02 12:30N 47°23' W 002°33'0 0.0
2017-Sep-02 09:50N 47°23' W 002°33'0 0.0
2017-Sep-02 09:26N 47°23' W 002°33'0 0.0
2017-Sep-02 09:00N 47°23' W 002°33'1 1.7
2017-Sep-02 08:30N 47°24' W 002°34'  

Dump ship's entire track history